Terminal Aerodrome Forecast
Issued by NWS St Louis, MO

Home | Current Version | Previous Version | Graphics & Text | Print | Product List | Glossary On
Versions: 1 2 3 4 5 6 7 8 9 10 11 12 13 14 15 16 17 18 19 20 21 22 23 24 25 26 27 28 29 30 31 32
000
FTUS43 KLSX 161955 AAA
TAFSTL
TAF AMD
KSTL 161955Z 1620/1724 33009KT P6SM FEW030 SCT110
     FM170200 04004KT P6SM FEW250
     FM170800 11004KT P6SM BKN250
     FM171800 19008KT P6SM OVC030
     FM172000 21008KT P6SM BKN015
     FM172300 23007KT P6SM SCT035=

USA.gov is the U.S. government's official web portal to all federal, state and local government web resources and services.